Flight Track Log - Related Links

Times and Time Zones

All times are in EDT time to prevent confusion due to time zone crossing. See the KAP29 flight status page for this flight to view local times or setup timezone preferences in your user account.

Time Position Orientation Groundspeed Altitude Reporting Facility
EDT Latitude Longitude Course Direction KTS MPH feet Rate Location/Type
Fri 03:49:39 PM 44.4317 -74.0303 115° Southeast 155 178 5,100  Level Boston Center
Fri 03:50:39 PM 44.4072 -73.9831 126° Southeast 150 173 6,000 900 Climbing Boston Center
Fri 03:51:39 PM 44.3828 -73.9331 124° Southeast 150 173 6,900 850 Climbing Boston Center
Fri 03:52:39 PM 44.3628 -73.8861 121° Southeast 150 173 7,700 700 Climbing Boston Center
Fri 03:53:39 PM 44.3403 -73.8392 124° Southeast 150 173 8,300 600 Climbing Boston Center
Fri 03:54:00 PM 44.2770 -73.9748 109° East  Level FlightAware Approximate
Fri 03:54:39 PM 44.3139 -73.7950 130° Southeast 150 173 8,900  Level Boston Center
Fri 03:55:00 PM 44.2663 -73.9321 115° Southeast  Level FlightAware Approximate
Fri 03:55:39 PM 44.2956 -73.7539 122° Southeast 150 173 9,100  Level Boston Center
Fri 03:56:39 PM 44.2692 -73.6897 120° Southeast 166 191 9,000 -50 Descending Boston Center
Fri 03:57:39 PM 44.2406 -73.6281 123° Southeast 171 197 9,000  Level Boston Center
Fri 03:58:39 PM 44.2058 -73.5694 130° Southeast 177 204 9,000  Level Boston Center
Fri 03:59:39 PM 44.1644 -73.5283 145° Southeast 197 227 9,000 50 Level Boston Center
Fri 04:00:39 PM 44.1294 -73.4814 136° Southeast 191 220 9,100 50 Climbing Boston Center
Fri 04:01:39 PM 44.1031 -73.4231 122° Southeast 181 208 9,100  Level Boston Center
Fri 04:02:39 PM 44.0783 -73.3650 121° Southeast 176 203 9,100  Level Boston Center
Fri 04:03:39 PM 44.0497 -73.3067 124° Southeast 176 203 9,100 -50 Level Boston Center
Fri 04:04:39 PM 44.0208 -73.2514 126° Southeast 176 203 9,000 -50 Descending Boston Center
Fri 04:05:39 PM 43.9942 -73.1933 123° Southeast 176 203 9,000 50 Level Boston Center
Fri 04:06:39 PM 43.9675 -73.1353 123° Southeast 176 203 9,100  Climbing Boston Center
Fri 04:07:39 PM 43.9408 -73.0803 124° Southeast 176 203 9,000 -50 Descending Boston Center
Fri 04:08:39 PM 43.9161 -73.0281 123° Southeast 176 203 9,000 50 Level Boston Center
Fri 04:09:39 PM 43.8892 -72.9731 124° Southeast 176 203 9,100  Climbing Boston Center
Fri 04:10:39 PM 43.8644 -72.9181 122° Southeast 176 203 9,000  Descending Boston Center
Fri 04:11:39 PM 43.8375 -72.8633 124° Southeast 176 203 9,100  Climbing Boston Center
Fri 04:12:39 PM 43.8128 -72.8083 122° Southeast 176 203 9,000 -50 Descending Boston Center
Fri 04:13:39 PM 43.7858 -72.7564 126° Southeast 171 197 9,000 50 Level Boston Center
Fri 04:14:39 PM 43.7672 -72.7103 119° Southeast 171 197 9,100 50 Climbing Boston Center
Fri 04:15:39 PM 43.7361 -72.6442 123° Southeast 176 203 9,100 -100 Level Boston Center
Fri 04:16:39 PM 43.7092 -72.5894 124° Southeast 176 203 8,900 -100 Descending Boston Center
Fri 04:17:39 PM 43.6819 -72.5319 123° Southeast 176 203 8,900 50 Level Boston Center
Fri 04:18:39 PM 43.6550 -72.4803 126° Southeast 176 203 9,000 50 Climbing Boston Center
Fri 04:19:39 PM 43.6278 -72.4200 122° Southeast 176 203 9,000  Level Boston Center
Fri 04:20:39 PM 43.6028 -72.3656 122° Southeast 176 203 9,000 -50 Level Boston Center
Fri 04:21:39 PM 43.5778 -72.3111 122° Southeast 176 203 8,900  Descending Boston Center
Fri 04:22:39 PM 43.5506 -72.2567 125° Southeast 176 203 9,000  Climbing Boston Center
Fri 04:23:39 PM 43.5214 -72.2025 127° Southeast 176 203 8,900 -50 Descending Boston Center
Fri 04:24:39 PM 43.4961 -72.1453 121° Southeast 176 203 8,900 50 Level Boston Center
Fri 04:25:39 PM 43.4669 -72.0911 127° Southeast 176 203 9,000 50 Climbing Boston Center
Fri 04:26:39 PM 43.4314 -72.0428 135° Southeast 176 203 9,000  Level Boston Center
Fri 04:27:39 PM 43.3936 -71.9914 135° Southeast 182 209 9,000 -50 Level Boston Center
Fri 04:28:39 PM 43.3558 -71.9406 136° Southeast 182 209 8,900 -100 Descending Boston Center
Fri 04:29:39 PM 43.3244 -71.8978 135° Southeast 177 204 8,800 -300 Descending Boston Center
Fri 04:30:39 PM 43.2825 -71.8383 134° Southeast 183 211 8,300 -450 Descending Boston Center
Fri 04:31:39 PM 43.2467 -71.7903 136° Southeast 190 219 7,900 -450 Descending Boston Center
Fri 04:32:39 PM 43.2025 -71.7281 134° Southeast 202 232 7,400 -364 Descending Boston Center
Fri 04:33:51 PM 43.1689 -71.6800 134° Southeast 197 227 7,100 -234 Descending Boston Center
Fri 04:34:47 PM 43.1167 -71.6167 138° Southeast 196 226 6,900 -99 Descending KA90
Fri 04:35:52 PM 43.0833 -71.5667 132° Southeast 177 204 6,900  Level KA90
Fri 04:36:53 PM 43.0500 -71.5167 132° Southeast 175 201 6,900  Level KA90
Fri 04:37:47 PM 43.0167 -71.4667 132° Southeast 177 204 6,900 -211 Level KA90
Fri 04:38:47 PM 42.9833 -71.4167 132° Southeast 185 213 6,500 -403 Descending KA90
Fri 04:39:46 PM 42.9333 -71.3667 144° Southeast 196 226 6,100 -288 Descending KA90
Fri 04:40:52 PM 42.9000 -71.3167 132° Southeast 186 214 5,900 -99 Descending KA90
Fri 04:41:47 PM 42.8667 -71.2833 144° Southeast 186 214 5,900  Level KA90
Fri 04:42:53 PM 42.8000 -71.2667 170° South 186 214 5,900  Level KA90
Fri 04:43:53 PM 42.7500 -71.2333 154° Southeast 184 212 5,900 -151 Level KA90
Fri 04:44:52 PM 42.7000 -71.2167 166° South 188 216 5,600 -381 Descending KA90
Fri 04:45:59 PM 42.6500 -71.1833 154° Southeast 202 232 5,100 -333 Descending KA90
Fri 04:46:58 PM 42.6000 -71.1667 166° South 199 229 4,900 -100 Descending KA90
Fri 04:47:59 PM 42.5500 -71.1500 166° South 184 212 4,900  Level KA90
Fri 04:48:53 PM 42.5000 -71.1167 154° Southeast 183 211 4,900  Level KA90
Fri 04:49:53 PM 42.4500 -71.1167 180° South 188 216 4,900  Level KA90
Fri 04:50:53 PM 42.4000 -71.1333 194° South 184 212 4,900  Level KA90
Fri 04:51:53 PM 42.3500 -71.1500 194° South 189 217 4,900 -143 Level KA90
Fri 04:52:59 PM 42.3000 -71.1833 206° Southwest 194 223 4,600 -368 Descending KA90
Fri 04:53:47 PM 42.2500 -71.1833 180° South 208 239 4,200 -632 Descending KA90
Fri 04:54:53 PM 42.2500 -71.1167 90° East 181 208 3,400 -810 Descending KA90
Fri 04:55:53 PM 42.2833 -71.0833 36° Northeast 173 199 2,500 -950 Descending KA90
Fri 04:56:53 PM 42.3167 -71.0333 48° Northeast 171 197 1,500 -1,050 Descending KA90
Fri 04:57:53 PM 42.3500 -71.0167 20° North 125 144 400 -1,100 Descending KA90
Fri 04:59:00 PM 42.3500 -71.0000 54° Northeast  Level FlightAware Approximate
Fri 05:06:00 PM 42.3630 -71.0064 54° Northeast  Level Estimated

Login

Don't have an account? Register now (free) for customized features, flight alerts, and more!